Estación Meteorológica Peña el Pijo (Robertgarden) [ 12/17/17 01:23:47 CET ]

Fecha Hora Presion(HPa) Temp (°C) Humedad % Rocio (°C) Viento ( m/s) Direccion Lluvia 1Hora(mm) Lluvia 24H(mm) LLuvia Total(mm)
2017-May-22 01:01:53 1011.400 14.8 58 6.6         1390.83
2017-May-22 02:01:36 1009.900 15.5 51 5.4         1390.83
2017-May-22 03:02:11 1008.500 15.3 37 0.6         1390.83
2017-May-22 04:01:51 1008.800 17.8 24 -3.3         1390.83
2017-May-22 05:01:56 1009.600 14.1 46 2.6         1390.83
2017-May-22 06:01:40 1009.900 11.4 53 2.1         1390.83
2017-May-22 07:01:46 1009.700 10.0 60 2.6         1390.83
2017-May-22 08:01:51 1010.600 11.6 62 4.2         1390.83
2017-May-22 09:01:22 1010.200 16.9 49 5.5         1390.83
2017-May-22 10:01:27 1010.300 23.5 34 6.6         1390.83
2017-May-22 11:01:45 1009.700 26.9 26 5.6 1.5 SSW     1390.83
2017-May-22 12:01:42 1009.800 29.3 22 5.2         1390.83
2017-May-22 13:02:02 1009.500 32.0 20 6.3         1390.83
2017-May-22 14:01:39 1009.200 30.6 22 6.3         1390.83
2017-May-22 15:02:13 1009.000 30.8 22 6.5         1390.83
2017-May-22 16:01:49 1008.700 33.6 19 6.6         1390.83
2017-May-22 17:01:44 1008.200 32.3 19 5.6         1390.83
2017-May-22 18:01:38 1008.100 29.8 20 4.4         1390.83
2017-May-22 19:01:38 1007.900 27.8 23 4.6         1390.83
2017-May-22 20:01:50 1008.100 26.6 27 5.9         1390.83
2017-May-22 21:01:42 1008.400 22.1 36 6.2         1390.83
2017-May-22 22:01:39 1009.200 19.4 43 6.4         1390.83
2017-May-22 23:01:51 1010.100 15.6 53 6.0         1390.83

Temperatura Máxima:33°    Temperatura Mínima:10°
Presión Máxima:1011.400 Hpa    Presión Mínima:1007.900 Hpa


Volver